sensor_id;sensor_type;location;lat;lon;timestamp;pressure;altitude;pressure_sealevel;temperature;humidity
6200;BME280;3133;43.214;27.906;2023-06-14T00:00:26;100251.28;;;19.06;100.00
6200;BME280;3133;43.214;27.906;2023-06-14T00:02:52;100256.19;;;19.15;100.00
6200;BME280;3133;43.214;27.906;2023-06-14T00:05:22;100250.78;;;19.19;100.00
6200;BME280;3133;43.214;27.906;2023-06-14T00:07:50;100208.34;;;19.00;100.00
6200;BME280;3133;43.214;27.906;2023-06-14T00:10:19;100244.13;;;19.08;100.00
6200;BME280;3133;43.214;27.906;2023-06-14T00:12:46;100251.72;;;19.18;100.00
6200;BME280;3133;43.214;27.906;2023-06-14T00:15:13;100220.81;;;18.96;100.00
6200;BME280;3133;43.214;27.906;2023-06-14T00:17:40;100234.28;;;19.12;100.00
6200;BME280;3133;43.214;27.906;2023-06-14T00:20:07;100233.44;;;19.11;100.00
6200;BME280;3133;43.214;27.906;2023-06-14T00:22:36;100246.22;;;18.77;100.00
6200;BME280;3133;43.214;27.906;2023-06-14T00:25:04;100242.91;;;18.95;100.00
6200;BME280;3133;43.214;27.906;2023-06-14T00:27:31;100242.44;;;18.84;100.00
6200;BME280;3133;43.214;27.906;2023-06-14T00:29:58;100244.50;;;18.99;100.00
6200;BME280;3133;43.214;27.906;2023-06-14T00:32:25;100239.94;;;19.03;100.00
6200;BME280;3133;43.214;27.906;2023-06-14T00:34:53;100235.16;;;19.12;100.00
6200;BME280;3133;43.214;27.906;2023-06-14T00:37:20;100242.06;;;19.17;100.00
6200;BME280;3133;43.214;27.906;2023-06-14T00:39:48;100248.31;;;19.14;100.00
6200;BME280;3133;43.214;27.906;2023-06-14T00:42:23;100255.59;;;19.09;100.00
6200;BME280;3133;43.214;27.906;2023-06-14T00:44:50;100254.47;;;19.14;100.00
6200;BME280;3133;43.214;27.906;2023-06-14T00:47:17;100201.03;;;18.85;100.00
6200;BME280;3133;43.214;27.906;2023-06-14T00:49:45;100256.44;;;18.86;100.00
6200;BME280;3133;43.214;27.906;2023-06-14T00:52:12;100251.69;;;18.96;100.00
6200;BME280;3133;43.214;27.906;2023-06-14T00:54:40;100246.16;;;19.02;100.00
6200;BME280;3133;43.214;27.906;2023-06-14T00:57:09;100265.53;;;19.02;100.00
6200;BME280;3133;43.214;27.906;2023-06-14T00:59:38;100264.59;;;19.03;100.00
6200;BME280;3133;43.214;27.906;2023-06-14T01:02:07;100259.13;;;19.08;100.00
6200;BME280;3133;43.214;27.906;2023-06-14T01:04:34;100249.31;;;18.88;100.00
6200;BME280;3133;43.214;27.906;2023-06-14T01:07:06;100263.25;;;18.93;100.00
6200;BME280;3133;43.214;27.906;2023-06-14T01:09:47;100258.72;;;18.49;100.00
6200;BME280;3133;43.214;27.906;2023-06-14T01:12:27;100256.69;;;18.57;100.00
6200;BME280;3133;43.214;27.906;2023-06-14T01:14:57;100249.28;;;18.42;100.00
6200;BME280;3133;43.214;27.906;2023-06-14T01:17:25;100244.69;;;18.49;100.00
6200;BME280;3133;43.214;27.906;2023-06-14T01:19:52;100169.78;;;18.02;100.00
6200;BME280;3133;43.214;27.906;2023-06-14T01:22:24;100247.34;;;18.49;100.00
6200;BME280;3133;43.214;27.906;2023-06-14T01:24:53;100249.66;;;18.56;100.00
6200;BME280;3133;43.214;27.906;2023-06-14T01:27:22;100249.97;;;18.49;100.00
6200;BME280;3133;43.214;27.906;2023-06-14T01:29:54;100245.44;;;18.52;100.00
6200;BME280;3133;43.214;27.906;2023-06-14T01:32:23;100253.28;;;18.29;100.00
6200;BME280;3133;43.214;27.906;2023-06-14T01:34:51;100241.41;;;18.40;100.00
6200;BME280;3133;43.214;27.906;2023-06-14T01:37:18;100248.38;;;18.43;100.00
6200;BME280;3133;43.214;27.906;2023-06-14T01:39:48;100208.41;;;18.04;100.00
6200;BME280;3133;43.214;27.906;2023-06-14T01:42:17;100245.91;;;18.14;100.00
6200;BME280;3133;43.214;27.906;2023-06-14T01:44:46;100180.81;;;17.90;100.00
6200;BME280;3133;43.214;27.906;2023-06-14T01:47:14;100239.78;;;18.38;100.00
6200;BME280;3133;43.214;27.906;2023-06-14T01:49:41;100241.28;;;18.45;100.00
6200;BME280;3133;43.214;27.906;2023-06-14T01:52:08;100244.56;;;18.52;100.00
6200;BME280;3133;43.214;27.906;2023-06-14T01:54:35;100247.09;;;18.55;100.00
6200;BME280;3133;43.214;27.906;2023-06-14T01:57:08;100246.06;;;18.59;100.00
6200;BME280;3133;43.214;27.906;2023-06-14T01:59:37;100251.41;;;18.57;100.00
6200;BME280;3133;43.214;27.906;2023-06-14T02:02:04;100252.63;;;18.49;100.00
6200;BME280;3133;43.214;27.906;2023-06-14T02:04:33;100248.94;;;18.53;100.00
6200;BME280;3133;43.214;27.906;2023-06-14T02:07:00;100246.06;;;18.59;100.00
6200;BME280;3133;43.214;27.906;2023-06-14T02:09:27;100240.72;;;18.60;100.00
6200;BME280;3133;43.214;27.906;2023-06-14T02:11:54;100129.81;;;17.89;100.00
6200;BME280;3133;43.214;27.906;2023-06-14T02:14:21;100225.44;;;18.45;100.00
6200;BME280;3133;43.214;27.906;2023-06-14T02:16:50;100235.84;;;18.50;100.00
6200;BME280;3133;43.214;27.906;2023-06-14T02:19:17;100245.59;;;18.48;100.00
6200;BME280;3133;43.214;27.906;2023-06-14T02:21:44;100242.50;;;18.35;100.00
6200;BME280;3133;43.214;27.906;2023-06-14T02:24:11;100247.94;;;18.30;100.00
6200;BME280;3133;43.214;27.906;2023-06-14T02:26:38;100243.16;;;18.17;100.00
6200;BME280;3133;43.214;27.906;2023-06-14T02:29:06;100250.97;;;18.20;100.00
6200;BME280;3133;43.214;27.906;2023-06-14T02:31:35;100249.22;;;18.19;100.00
6200;BME280;3133;43.214;27.906;2023-06-14T02:34:04;100257.88;;;18.24;100.00
6200;BME280;3133;43.214;27.906;2023-06-14T02:36:30;100262.09;;;18.29;100.00
6200;BME280;3133;43.214;27.906;2023-06-14T02:38:57;100252.59;;;18.24;100.00
6200;BME280;3133;43.214;27.906;2023-06-14T02:41:24;100259.16;;;18.37;100.00
6200;BME280;3133;43.214;27.906;2023-06-14T02:43:51;100266.91;;;18.42;100.00
6200;BME280;3133;43.214;27.906;2023-06-14T02:46:18;100264.06;;;18.48;100.00
6200;BME280;3133;43.214;27.906;2023-06-14T02:48:45;100255.13;;;18.52;100.00
6200;BME280;3133;43.214;27.906;2023-06-14T02:51:13;100260.31;;;18.55;100.00
6200;BME280;3133;43.214;27.906;2023-06-14T02:53:40;100238.72;;;18.42;100.00
6200;BME280;3133;43.214;27.906;2023-06-14T02:56:07;100272.88;;;18.48;100.00
6200;BME280;3133;43.214;27.906;2023-06-14T02:58:34;100268.28;;;18.53;100.00
6200;BME280;3133;43.214;27.906;2023-06-14T03:01:02;100270.81;;;18.56;100.00
6200;BME280;3133;43.214;27.906;2023-06-14T03:03:29;100259.53;;;18.51;100.00
6200;BME280;3133;43.214;27.906;2023-06-14T03:05:56;100260.81;;;18.64;100.00
6200;BME280;3133;43.214;27.906;2023-06-14T03:08:29;100277.91;;;18.79;100.00
6200;BME280;3133;43.214;27.906;2023-06-14T03:10:57;100275.06;;;18.83;100.00
6200;BME280;3133;43.214;27.906;2023-06-14T03:13:24;100274.63;;;18.95;100.00
6200;BME280;3133;43.214;27.906;2023-06-14T03:15:51;100277.72;;;19.06;100.00
6200;BME280;3133;43.214;27.906;2023-06-14T03:18:19;100277.47;;;19.12;100.00
6200;BME280;3133;43.214;27.906;2023-06-14T03:20:48;100282.69;;;19.14;100.00
6200;BME280;3133;43.214;27.906;2023-06-14T03:23:16;100254.25;;;18.97;100.00
6200;BME280;3133;43.214;27.906;2023-06-14T03:25:44;100295.69;;;18.97;100.00
6200;BME280;3133;43.214;27.906;2023-06-14T03:28:11;100277.09;;;19.00;100.00
6200;BME280;3133;43.214;27.906;2023-06-14T03:30:38;100289.75;;;19.13;100.00
6200;BME280;3133;43.214;27.906;2023-06-14T03:33:06;100298.69;;;19.11;100.00
6200;BME280;3133;43.214;27.906;2023-06-14T03:35:35;100234.50;;;18.84;100.00
6200;BME280;3133;43.214;27.906;2023-06-14T03:38:02;100097.91;;;17.95;100.00
6200;BME280;3133;43.214;27.906;2023-06-14T03:40:29;100298.69;;;19.11;100.00
6200;BME280;3133;43.214;27.906;2023-06-14T03:42:58;100295.63;;;19.22;100.00
6200;BME280;3133;43.214;27.906;2023-06-14T03:45:25;100299.66;;;19.08;100.00
6200;BME280;3133;43.214;27.906;2023-06-14T03:47:52;100301.31;;;19.11;100.00
6200;BME280;3133;43.214;27.906;2023-06-14T03:50:20;100272.28;;;19.09;100.00
6200;BME280;3133;43.214;27.906;2023-06-14T03:52:48;100299.41;;;19.14;100.00
6200;BME280;3133;43.214;27.906;2023-06-14T03:55:16;100274.31;;;19.03;100.00
6200;BME280;3133;43.214;27.906;2023-06-14T03:57:43;100294.69;;;19.23;100.00
6200;BME280;3133;43.214;27.906;2023-06-14T04:00:12;100293.56;;;19.06;100.00
6200;BME280;3133;43.214;27.906;2023-06-14T04:02:40;100290.34;;;19.22;100.00
6200;BME280;3133;43.214;27.906;2023-06-14T04:05:07;100263.19;;;19.17;100.00
6200;BME280;3133;43.214;27.906;2023-06-14T04:07:34;100222.56;;;18.97;100.00
6200;BME280;3133;43.214;27.906;2023-06-14T04:10:06;100270.47;;;19.33;100.00
6200;BME280;3133;43.214;27.906;2023-06-14T04:12:34;100304.97;;;19.53;100.00
6200;BME280;3133;43.214;27.906;2023-06-14T04:15:01;100302.13;;;19.58;100.00
6200;BME280;3133;43.214;27.906;2023-06-14T04:17:30;100295.69;;;19.65;100.00
6200;BME280;3133;43.214;27.906;2023-06-14T04:19:58;100235.28;;;19.31;100.00
6200;BME280;3133;43.214;27.906;2023-06-14T04:22:25;100310.00;;;19.81;100.00
6200;BME280;3133;43.214;27.906;2023-06-14T04:24:54;100306.19;;;19.88;100.00
6200;BME280;3133;43.214;27.906;2023-06-14T04:27:21;100302.47;;;19.92;100.00
6200;BME280;3133;43.214;27.906;2023-06-14T04:29:51;100286.44;;;19.95;100.00
6200;BME280;3133;43.214;27.906;2023-06-14T04:32:26;100316.13;;;20.25;100.00
6200;BME280;3133;43.214;27.906;2023-06-14T04:34:57;100318.94;;;20.40;100.00
6200;BME280;3133;43.214;27.906;2023-06-14T04:37:24;100319.06;;;20.57;100.00
6200;BME280;3133;43.214;27.906;2023-06-14T04:39:55;100292.16;;;20.67;100.00
6200;BME280;3133;43.214;27.906;2023-06-14T04:42:35;100329.63;;;20.98;100.00
6200;BME280;3133;43.214;27.906;2023-06-14T04:45:04;100302.16;;;20.99;100.00
6200;BME280;3133;43.214;27.906;2023-06-14T04:47:32;100327.22;;;21.30;100.00
6200;BME280;3133;43.214;27.906;2023-06-14T04:50:09;100346.88;;;21.45;100.00
6200;BME280;3133;43.214;27.906;2023-06-14T04:52:39;100274.03;;;21.15;100.00
6200;BME280;3133;43.214;27.906;2023-06-14T04:55:08;100327.13;;;21.51;100.00
6200;BME280;3133;43.214;27.906;2023-06-14T04:57:35;100357.59;;;21.98;100.00
6200;BME280;3133;43.214;27.906;2023-06-14T05:00:14;100338.94;;;23.33;100.00
6200;BME280;3133;43.214;27.906;2023-06-14T05:02:43;100363.00;;;25.26;100.00
6200;BME280;3133;43.214;27.906;2023-06-14T05:05:11;100372.09;;;26.45;100.00
6200;BME280;3133;43.214;27.906;2023-06-14T05:07:39;100376.06;;;27.53;100.00
6200;BME280;3133;43.214;27.906;2023-06-14T05:10:07;100378.66;;;28.38;100.00
6200;BME280;3133;43.214;27.906;2023-06-14T05:12:34;100370.34;;;28.65;100.00
6200;BME280;3133;43.214;27.906;2023-06-14T05:15:02;100383.66;;;29.34;100.00
6200;BME280;3133;43.214;27.906;2023-06-14T05:17:30;100379.09;;;29.79;100.00
6200;BME280;3133;43.214;27.906;2023-06-14T05:19:57;100370.44;;;29.87;100.00
6200;BME280;3133;43.214;27.906;2023-06-14T05:22:26;100337.44;;;29.74;100.00
6200;BME280;3133;43.214;27.906;2023-06-14T05:24:53;100400.41;;;30.57;100.00
6200;BME280;3133;43.214;27.906;2023-06-14T05:27:20;100400.09;;;30.39;100.00
6200;BME280;3133;43.214;27.906;2023-06-14T05:29:47;100400.44;;;30.77;100.00
6200;BME280;3133;43.214;27.906;2023-06-14T05:32:15;100398.28;;;30.92;100.00
6200;BME280;3133;43.214;27.906;2023-06-14T05:34:43;100358.25;;;30.87;100.00
6200;BME280;3133;43.214;27.906;2023-06-14T05:37:10;100411.09;;;31.30;100.00
6200;BME280;3133;43.214;27.906;2023-06-14T05:39:38;100417.66;;;31.07;100.00
6200;BME280;3133;43.214;27.906;2023-06-14T05:42:06;100418.91;;;31.02;100.00
6200;BME280;3133;43.214;27.906;2023-06-14T05:44:33;100412.22;;;31.27;100.00
6200;BME280;3133;43.214;27.906;2023-06-14T05:47:00;100421.94;;;31.09;100.00
6200;BME280;3133;43.214;27.906;2023-06-14T05:49:33;100423.84;;;31.18;100.00
6200;BME280;3133;43.214;27.906;2023-06-14T05:52:06;100418.00;;;31.23;100.00
6200;BME280;3133;43.214;27.906;2023-06-14T05:54:34;100425.25;;;31.43;100.00
6200;BME280;3133;43.214;27.906;2023-06-14T05:57:03;100426.75;;;31.66;100.00
6200;BME280;3133;43.214;27.906;2023-06-14T05:59:31;100433.50;;;31.51;100.00
6200;BME280;3133;43.214;27.906;2023-06-14T06:01:58;100432.59;;;31.71;100.00
6200;BME280;3133;43.214;27.906;2023-06-14T06:04:25;100411.81;;;31.32;100.00
6200;BME280;3133;43.214;27.906;2023-06-14T06:06:52;100439.06;;;31.49;100.00
6200;BME280;3133;43.214;27.906;2023-06-14T06:09:20;100403.53;;;31.84;100.00
6200;BME280;3133;43.214;27.906;2023-06-14T06:11:47;100440.13;;;32.07;100.00
6200;BME280;3133;43.214;27.906;2023-06-14T06:14:15;100377.38;;;31.75;100.00
6200;BME280;3133;43.214;27.906;2023-06-14T06:16:42;100421.19;;;31.58;100.00
6200;BME280;3133;43.214;27.906;2023-06-14T06:19:09;100418.09;;;31.72;100.00
6200;BME280;3133;43.214;27.906;2023-06-14T06:21:36;100403.28;;;30.96;100.00
6200;BME280;3133;43.214;27.906;2023-06-14T06:24:05;100423.75;;;31.09;100.00
6200;BME280;3133;43.214;27.906;2023-06-14T06:26:33;100363.69;;;30.56;100.00
6200;BME280;3133;43.214;27.906;2023-06-14T06:29:00;100428.03;;;31.11;100.00
6200;BME280;3133;43.214;27.906;2023-06-14T06:31:28;100427.00;;;30.50;100.00
6200;BME280;3133;43.214;27.906;2023-06-14T06:33:56;100425.69;;;29.35;100.00
6200;BME280;3133;43.214;27.906;2023-06-14T06:36:28;100268.19;;;27.39;100.00
6200;BME280;3133;43.214;27.906;2023-06-14T06:38:55;100425.38;;;28.36;100.00
6200;BME280;3133;43.214;27.906;2023-06-14T06:41:22;100408.78;;;28.42;100.00
6200;BME280;3133;43.214;27.906;2023-06-14T06:43:49;100430.66;;;28.01;100.00
6200;BME280;3133;43.214;27.906;2023-06-14T06:46:16;100359.19;;;26.90;100.00
6200;BME280;3133;43.214;27.906;2023-06-14T06:48:46;100401.06;;;26.78;100.00
6200;BME280;3133;43.214;27.906;2023-06-14T06:51:13;100424.00;;;26.82;100.00
6200;BME280;3133;43.214;27.906;2023-06-14T06:53:48;100381.38;;;26.40;100.00
6200;BME280;3133;43.214;27.906;2023-06-14T06:56:18;100367.34;;;27.01;100.00
6200;BME280;3133;43.214;27.906;2023-06-14T06:59:00;100313.13;;;26.59;100.00
6200;BME280;3133;43.214;27.906;2023-06-14T07:01:44;100302.84;;;26.66;100.00
6200;BME280;3133;43.214;27.906;2023-06-14T07:04:21;100373.44;;;27.77;100.00
6200;BME280;3133;43.214;27.906;2023-06-14T07:06:48;100421.09;;;28.33;100.00
6200;BME280;3133;43.214;27.906;2023-06-14T07:09:15;100319.09;;;26.50;100.00
6200;BME280;3133;43.214;27.906;2023-06-14T07:11:47;100416.63;;;26.59;100.00
6200;BME280;3133;43.214;27.906;2023-06-14T07:14:14;100374.91;;;25.76;100.00
6200;BME280;3133;43.214;27.906;2023-06-14T07:16:41;100399.44;;;25.69;100.00
6200;BME280;3133;43.214;27.906;2023-06-14T07:19:08;100411.88;;;25.42;100.00
6200;BME280;3133;43.214;27.906;2023-06-14T07:21:41;100395.16;;;24.96;100.00
6200;BME280;3133;43.214;27.906;2023-06-14T07:24:10;100412.78;;;24.98;100.00
6200;BME280;3133;43.214;27.906;2023-06-14T07:26:39;100424.59;;;25.93;100.00
6200;BME280;3133;43.214;27.906;2023-06-14T07:29:09;100409.81;;;25.88;100.00
6200;BME280;3133;43.214;27.906;2023-06-14T07:31:36;100416.59;;;24.94;100.00
6200;BME280;3133;43.214;27.906;2023-06-14T07:34:03;100249.84;;;23.70;100.00
6200;BME280;3133;43.214;27.906;2023-06-14T07:36:30;100412.66;;;25.44;100.00
6200;BME280;3133;43.214;27.906;2023-06-14T07:38:58;100419.97;;;25.54;100.00
6200;BME280;3133;43.214;27.906;2023-06-14T07:41:25;100348.56;;;24.72;100.00
6200;BME280;3133;43.214;27.906;2023-06-14T07:43:52;100343.63;;;25.36;100.00
6200;BME280;3133;43.214;27.906;2023-06-14T07:46:22;100417.97;;;26.13;100.00
6200;BME280;3133;43.214;27.906;2023-06-14T07:48:49;100370.38;;;25.22;100.00
6200;BME280;3133;43.214;27.906;2023-06-14T07:51:16;100405.84;;;25.10;100.00
6200;BME280;3133;43.214;27.906;2023-06-14T07:53:43;100202.94;;;23.38;100.00
6200;BME280;3133;43.214;27.906;2023-06-14T07:56:26;100420.47;;;25.47;100.00
6200;BME280;3133;43.214;27.906;2023-06-14T07:58:55;100418.03;;;25.00;100.00
6200;BME280;3133;43.214;27.906;2023-06-14T08:01:21;100416.28;;;24.85;100.00
6200;BME280;3133;43.214;27.906;2023-06-14T08:03:51;100423.53;;;24.37;100.00
6200;BME280;3133;43.214;27.906;2023-06-14T08:06:18;100419.44;;;24.91;100.00
6200;BME280;3133;43.214;27.906;2023-06-14T08:08:45;100426.66;;;25.33;100.00
6200;BME280;3133;43.214;27.906;2023-06-14T08:11:11;100404.03;;;25.10;100.00
6200;BME280;3133;43.214;27.906;2023-06-14T08:13:40;100390.84;;;24.79;100.00
6200;BME280;3133;43.214;27.906;2023-06-14T08:16:07;100394.94;;;24.85;100.00
6200;BME280;3133;43.214;27.906;2023-06-14T08:18:36;100424.41;;;24.83;100.00
6200;BME280;3133;43.214;27.906;2023-06-14T08:21:03;100425.91;;;24.58;100.00
6200;BME280;3133;43.214;27.906;2023-06-14T08:23:30;100420.84;;;24.53;100.00
6200;BME280;3133;43.214;27.906;2023-06-14T08:25:57;100407.63;;;24.95;100.00
6200;BME280;3133;43.214;27.906;2023-06-14T08:28:26;100430.84;;;25.51;100.00
6200;BME280;3133;43.214;27.906;2023-06-14T08:30:55;100413.22;;;25.49;100.00
6200;BME280;3133;43.214;27.906;2023-06-14T08:33:21;100416.72;;;25.63;100.00
6200;BME280;3133;43.214;27.906;2023-06-14T08:35:48;100425.69;;;26.03;100.00
6200;BME280;3133;43.214;27.906;2023-06-14T08:38:16;100428.63;;;26.27;100.00
6200;BME280;3133;43.214;27.906;2023-06-14T08:40:42;100432.91;;;26.56;100.00
6200;BME280;3133;43.214;27.906;2023-06-14T08:43:09;100431.28;;;26.53;100.00
6200;BME280;3133;43.214;27.906;2023-06-14T08:45:36;100434.06;;;26.25;100.00
6200;BME280;3133;43.214;27.906;2023-06-14T08:48:06;100429.88;;;26.07;100.00
6200;BME280;3133;43.214;27.906;2023-06-14T08:50:36;100428.59;;;25.86;100.00
6200;BME280;3133;43.214;27.906;2023-06-14T08:53:06;100356.72;;;25.41;100.00
6200;BME280;3133;43.214;27.906;2023-06-14T08:55:36;100382.94;;;24.92;100.00
6200;BME280;3133;43.214;27.906;2023-06-14T08:58:06;100417.25;;;24.98;100.00
6200;BME280;3133;43.214;27.906;2023-06-14T09:00:40;100422.44;;;24.71;100.00
6200;BME280;3133;43.214;27.906;2023-06-14T09:03:12;100402.84;;;24.27;100.00
6200;BME280;3133;43.214;27.906;2023-06-14T09:05:39;100414.63;;;24.38;100.00
6200;BME280;3133;43.214;27.906;2023-06-14T09:08:07;100406.00;;;24.33;100.00
6200;BME280;3133;43.214;27.906;2023-06-14T09:10:37;100367.13;;;24.15;100.00
6200;BME280;3133;43.214;27.906;2023-06-14T09:13:06;100389.03;;;24.50;100.00
6200;BME280;3133;43.214;27.906;2023-06-14T09:15:34;100407.09;;;24.15;100.00
6200;BME280;3133;43.214;27.906;2023-06-14T09:18:02;100399.59;;;23.91;100.00
6200;BME280;3133;43.214;27.906;2023-06-14T09:20:31;100375.09;;;23.84;100.00
6200;BME280;3133;43.214;27.906;2023-06-14T09:23:00;100399.94;;;23.69;100.00
6200;BME280;3133;43.214;27.906;2023-06-14T09:25:26;100377.50;;;23.73;100.00
6200;BME280;3133;43.214;27.906;2023-06-14T09:27:53;100399.63;;;24.06;100.00
6200;BME280;3133;43.214;27.906;2023-06-14T09:30:22;100404.56;;;24.28;100.00
6200;BME280;3133;43.214;27.906;2023-06-14T09:32:51;100396.28;;;24.48;100.00
6200;BME280;3133;43.214;27.906;2023-06-14T09:35:18;100383.91;;;24.61;100.00
6200;BME280;3133;43.214;27.906;2023-06-14T09:37:49;100399.81;;;24.92;100.00
6200;BME280;3133;43.214;27.906;2023-06-14T09:40:22;100370.09;;;24.84;100.00
6200;BME280;3133;43.214;27.906;2023-06-14T09:42:52;100400.41;;;25.11;100.00
6200;BME280;3133;43.214;27.906;2023-06-14T09:45:23;100396.91;;;25.53;100.00
6200;BME280;3133;43.214;27.906;2023-06-14T09:47:55;100278.59;;;25.37;100.00
6200;BME280;3133;43.214;27.906;2023-06-14T09:50:26;100396.97;;;26.33;100.00
6200;BME280;3133;43.214;27.906;2023-06-14T09:53:03;100328.59;;;26.29;100.00
6200;BME280;3133;43.214;27.906;2023-06-14T09:55:54;100360.25;;;26.23;100.00
6200;BME280;3133;43.214;27.906;2023-06-14T09:58:28;100386.38;;;25.64;100.00
6200;BME280;3133;43.214;27.906;2023-06-14T10:01:06;100385.72;;;25.33;100.00
6200;BME280;3133;43.214;27.906;2023-06-14T10:03:38;100385.34;;;25.10;100.00
6200;BME280;3133;43.214;27.906;2023-06-14T10:06:09;100352.72;;;25.20;100.00
6200;BME280;3133;43.214;27.906;2023-06-14T10:08:56;100262.38;;;24.85;100.00
6200;BME280;3133;43.214;27.906;2023-06-14T10:11:33;100345.69;;;25.47;100.00
6200;BME280;3133;43.214;27.906;2023-06-14T10:14:24;100337.94;;;25.28;100.00
6200;BME280;3133;43.214;27.906;2023-06-14T10:17:03;100396.22;;;25.22;100.00
6200;BME280;3133;43.214;27.906;2023-06-14T10:19:42;100391.09;;;25.19;100.00
6200;BME280;3133;43.214;27.906;2023-06-14T10:22:17;100390.09;;;25.76;100.00
6200;BME280;3133;43.214;27.906;2023-06-14T10:25:02;100391.25;;;26.13;100.00
6200;BME280;3133;43.214;27.906;2023-06-14T10:27:30;100392.06;;;26.40;100.00
6200;BME280;3133;43.214;27.906;2023-06-14T10:30:07;100397.75;;;26.48;100.00
6200;BME280;3133;43.214;27.906;2023-06-14T10:33:12;100404.81;;;26.36;100.00
6200;BME280;3133;43.214;27.906;2023-06-14T10:35:46;100402.75;;;26.40;100.00
6200;BME280;3133;43.214;27.906;2023-06-14T10:38:30;100383.97;;;26.01;100.00
6200;BME280;3133;43.214;27.906;2023-06-14T10:44:43;100403.75;;;26.12;100.00
6200;BME280;3133;43.214;27.906;2023-06-14T10:47:21;100406.44;;;25.98;100.00
6200;BME280;3133;43.214;27.906;2023-06-14T10:49:51;100335.09;;;25.45;100.00
6200;BME280;3133;43.214;27.906;2023-06-14T10:52:25;100410.38;;;25.93;100.00
6200;BME280;3133;43.214;27.906;2023-06-14T10:55:06;100405.81;;;26.07;100.00
6200;BME280;3133;43.214;27.906;2023-06-14T10:57:35;100311.28;;;25.14;100.00
6200;BME280;3133;43.214;27.906;2023-06-14T11:00:11;100413.72;;;25.82;100.00
6200;BME280;3133;43.214;27.906;2023-06-14T11:03:22;100396.75;;;25.83;100.00
6200;BME280;3133;43.214;27.906;2023-06-14T11:05:59;100413.00;;;26.07;100.00
6200;BME280;3133;43.214;27.906;2023-06-14T11:11:38;100410.09;;;25.42;100.00
6200;BME280;3133;43.214;27.906;2023-06-14T11:14:22;100339.66;;;25.15;100.00
6200;BME280;3133;43.214;27.906;2023-06-14T11:16:53;100398.25;;;25.46;100.00
6200;BME280;3133;43.214;27.906;2023-06-14T11:19:21;100368.19;;;25.29;100.00
6200;BME280;3133;43.214;27.906;2023-06-14T11:21:48;100320.69;;;25.20;100.00
6200;BME280;3133;43.214;27.906;2023-06-14T11:24:16;100405.19;;;25.77;100.00
6200;BME280;3133;43.214;27.906;2023-06-14T11:26:44;100408.97;;;25.73;100.00
6200;BME280;3133;43.214;27.906;2023-06-14T11:29:24;100416.63;;;25.79;100.00
6200;BME280;3133;43.214;27.906;2023-06-14T11:31:51;100421.38;;;25.74;100.00
6200;BME280;3133;43.214;27.906;2023-06-14T11:34:20;100386.00;;;24.86;100.00
6200;BME280;3133;43.214;27.906;2023-06-14T11:36:54;100231.56;;;23.94;100.00
6200;BME280;3133;43.214;27.906;2023-06-14T11:39:24;100334.16;;;24.46;100.00
6200;BME280;3133;43.214;27.906;2023-06-14T11:41:52;100365.31;;;24.75;100.00
6200;BME280;3133;43.214;27.906;2023-06-14T11:44:23;100424.22;;;25.00;100.00
6200;BME280;3133;43.214;27.906;2023-06-14T11:46:51;100362.78;;;24.72;100.00
6200;BME280;3133;43.214;27.906;2023-06-14T11:55:59;100424.63;;;24.65;100.00
6200;BME280;3133;43.214;27.906;2023-06-14T12:01:48;100418.16;;;24.23;100.00
6200;BME280;3133;43.214;27.906;2023-06-14T12:04:23;100420.06;;;24.06;100.00
6200;BME280;3133;43.214;27.906;2023-06-14T12:10:12;100408.81;;;23.85;100.00
6200;BME280;3133;43.214;27.906;2023-06-14T12:12:43;100408.19;;;23.96;100.00
6200;BME280;3133;43.214;27.906;2023-06-14T12:18:32;100407.16;;;24.29;100.00
6200;BME280;3133;43.214;27.906;2023-06-14T12:21:05;100408.41;;;24.38;100.00
6200;BME280;3133;43.214;27.906;2023-06-14T12:26:54;100414.28;;;23.67;100.00
6200;BME280;3133;43.214;27.906;2023-06-14T12:29:28;100401.31;;;23.12;100.00
6200;BME280;3133;43.214;27.906;2023-06-14T12:35:16;100389.44;;;22.85;100.00
6200;BME280;3133;43.214;27.906;2023-06-14T12:37:44;100380.28;;;22.91;100.00
6200;BME280;3133;43.214;27.906;2023-06-14T12:43:32;100381.03;;;23.10;100.00
6200;BME280;3133;43.214;27.906;2023-06-14T12:49:22;100379.13;;;22.79;100.00
6200;BME280;3133;43.214;27.906;2023-06-14T12:55:11;100379.53;;;23.21;100.00
6200;BME280;3133;43.214;27.906;2023-06-14T12:57:37;100368.88;;;23.21;100.00
6200;BME280;3133;43.214;27.906;2023-06-14T13:03:26;100370.38;;;22.60;100.00
6200;BME280;3133;43.214;27.906;2023-06-14T13:05:54;100365.69;;;22.82;100.00
6200;BME280;3133;43.214;27.906;2023-06-14T13:11:44;100372.28;;;23.08;100.00
6200;BME280;3133;43.214;27.906;2023-06-14T13:17:34;100377.41;;;22.95;100.00
6200;BME280;3133;43.214;27.906;2023-06-14T13:20:04;100384.34;;;22.98;100.00
6200;BME280;3133;43.214;27.906;2023-06-14T13:25:55;100379.72;;;23.01;100.00
6200;BME280;3133;43.214;27.906;2023-06-14T13:28:23;100377.75;;;23.05;100.00
6200;BME280;3133;43.214;27.906;2023-06-14T13:34:11;100370.25;;;22.63;100.00
6200;BME280;3133;43.214;27.906;2023-06-14T13:36:39;100373.19;;;22.57;100.00
6200;BME280;3133;43.214;27.906;2023-06-14T13:42:29;100363.94;;;22.81;100.00
6200;BME280;3133;43.214;27.906;2023-06-14T13:48:18;100380.44;;;23.20;100.00
6200;BME280;3133;43.214;27.906;2023-06-14T13:50:47;100376.44;;;23.29;100.00
6200;BME280;3133;43.214;27.906;2023-06-14T13:56:35;100376.34;;;23.15;100.00
6200;BME280;3133;43.214;27.906;2023-06-14T13:59:04;100371.66;;;23.35;100.00
6200;BME280;3133;43.214;27.906;2023-06-14T14:04:53;100364.06;;;23.45;100.00
6200;BME280;3133;43.214;27.906;2023-06-14T14:10:42;100374.41;;;23.01;100.00
6200;BME280;3133;43.214;27.906;2023-06-14T14:16:32;100367.97;;;23.05;100.00
6200;BME280;3133;43.214;27.906;2023-06-14T14:19:05;100376.56;;;23.10;100.00